sensor_id;sensor_type;location;lat;lon;timestamp;temperature;humidity
64209;DHT22;50527;52.414;13.226;2022-12-15T00:02:22;-6.70;79.90
64209;DHT22;50527;52.414;13.226;2022-12-15T00:05:07;-6.70;80.00
64209;DHT22;50527;52.414;13.226;2022-12-15T00:07:51;-6.80;79.40
64209;DHT22;50527;52.414;13.226;2022-12-15T00:10:35;-6.80;79.70
64209;DHT22;50527;52.414;13.226;2022-12-15T00:13:19;-6.90;80.40
64209;DHT22;50527;52.414;13.226;2022-12-15T00:16:04;-6.80;80.30
64209;DHT22;50527;52.414;13.226;2022-12-15T00:18:48;-6.90;80.00
64209;DHT22;50527;52.414;13.226;2022-12-15T00:21:32;-6.90;80.50
64209;DHT22;50527;52.414;13.226;2022-12-15T00:24:16;-6.90;80.90
64209;DHT22;50527;52.414;13.226;2022-12-15T00:27:00;-6.80;80.20
64209;DHT22;50527;52.414;13.226;2022-12-15T00:29:44;-6.90;79.60
64209;DHT22;50527;52.414;13.226;2022-12-15T00:32:29;-7.00;80.30
64209;DHT22;50527;52.414;13.226;2022-12-15T00:35:13;-6.90;80.40
64209;DHT22;50527;52.414;13.226;2022-12-15T00:37:57;-7.00;79.60
64209;DHT22;50527;52.414;13.226;2022-12-15T00:40:41;-7.20;79.50
64209;DHT22;50527;52.414;13.226;2022-12-15T00:43:07;-7.20;79.90
64209;DHT22;50527;52.414;13.226;2022-12-15T00:45:36;-7.30;79.70
64209;DHT22;50527;52.414;13.226;2022-12-15T00:48:20;-7.30;80.00
64209;DHT22;50527;52.414;13.226;2022-12-15T00:50:45;-7.40;80.10
64209;DHT22;50527;52.414;13.226;2022-12-15T00:53:16;-7.40;80.90
64209;DHT22;50527;52.414;13.226;2022-12-15T00:56:01;-7.40;81.00
64209;DHT22;50527;52.414;13.226;2022-12-15T00:58:45;-7.40;80.60
64209;DHT22;50527;52.414;13.226;2022-12-15T01:01:29;-7.40;81.00
64209;DHT22;50527;52.414;13.226;2022-12-15T01:04:14;-7.40;81.20
64209;DHT22;50527;52.414;13.226;2022-12-15T01:06:58;-7.30;81.10
64209;DHT22;50527;52.414;13.226;2022-12-15T01:09:42;-7.30;80.10
64209;DHT22;50527;52.414;13.226;2022-12-15T01:12:26;-7.40;80.10
64209;DHT22;50527;52.414;13.226;2022-12-15T01:15:11;-7.40;81.20
64209;DHT22;50527;52.414;13.226;2022-12-15T01:17:55;-7.40;81.60
64209;DHT22;50527;52.414;13.226;2022-12-15T01:20:39;-7.40;81.40
64209;DHT22;50527;52.414;13.226;2022-12-15T01:23:05;-7.40;81.80
64209;DHT22;50527;52.414;13.226;2022-12-15T01:25:30;-7.30;81.40
64209;DHT22;50527;52.414;13.226;2022-12-15T01:27:56;-7.20;81.20
64209;DHT22;50527;52.414;13.226;2022-12-15T01:30:22;-7.20;80.30
64209;DHT22;50527;52.414;13.226;2022-12-15T01:32:48;-7.20;80.50
64209;DHT22;50527;52.414;13.226;2022-12-15T01:35:13;-7.20;80.30
64209;DHT22;50527;52.414;13.226;2022-12-15T01:37:39;-7.20;80.30
64209;DHT22;50527;52.414;13.226;2022-12-15T01:40:05;-7.30;80.40
64209;DHT22;50527;52.414;13.226;2022-12-15T01:42:49;-7.30;80.30
64209;DHT22;50527;52.414;13.226;2022-12-15T01:47:54;-7.20;80.40
64209;DHT22;50527;52.414;13.226;2022-12-15T01:50:20;-7.20;80.60
64209;DHT22;50527;52.414;13.226;2022-12-15T01:52:46;-7.20;80.00
64209;DHT22;50527;52.414;13.226;2022-12-15T01:55:13;-7.30;80.50
64209;DHT22;50527;52.414;13.226;2022-12-15T01:57:39;-7.30;80.30
64209;DHT22;50527;52.414;13.226;2022-12-15T02:00:05;-7.30;80.10
64209;DHT22;50527;52.414;13.226;2022-12-15T02:02:31;-7.30;79.70
64209;DHT22;50527;52.414;13.226;2022-12-15T02:04:57;-7.30;79.80
64209;DHT22;50527;52.414;13.226;2022-12-15T02:07:23;-7.40;79.90
64209;DHT22;50527;52.414;13.226;2022-12-15T02:09:49;-7.30;79.80
64209;DHT22;50527;52.414;13.226;2022-12-15T02:12:25;-7.30;79.50
64209;DHT22;50527;52.414;13.226;2022-12-15T02:15:03;-7.40;80.10
64209;DHT22;50527;52.414;13.226;2022-12-15T02:30:26;-7.50;81.10
64209;DHT22;50527;52.414;13.226;2022-12-15T02:33:14;-7.50;81.20
64209;DHT22;50527;52.414;13.226;2022-12-15T02:35:44;-7.50;81.30
64209;DHT22;50527;52.414;13.226;2022-12-15T02:38:11;-7.50;81.80
64209;DHT22;50527;52.414;13.226;2022-12-15T02:40:37;-7.40;81.30
64209;DHT22;50527;52.414;13.226;2022-12-15T02:43:03;-7.50;81.00
64209;DHT22;50527;52.414;13.226;2022-12-15T02:51:06;-7.40;81.00
64209;DHT22;50527;52.414;13.226;2022-12-15T02:53:58;-7.40;80.30
64209;DHT22;50527;52.414;13.226;2022-12-15T02:56:31;-7.40;80.30
64209;DHT22;50527;52.414;13.226;2022-12-15T02:59:06;-7.60;80.40
64209;DHT22;50527;52.414;13.226;2022-12-15T03:01:36;-7.70;81.10
64209;DHT22;50527;52.414;13.226;2022-12-15T03:04:04;-7.90;81.40
64209;DHT22;50527;52.414;13.226;2022-12-15T03:06:31;-7.90;81.30
64209;DHT22;50527;52.414;13.226;2022-12-15T03:08:56;-7.90;82.20
64209;DHT22;50527;52.414;13.226;2022-12-15T03:11:21;-7.90;82.50
64209;DHT22;50527;52.414;13.226;2022-12-15T03:13:47;-7.80;82.50
64209;DHT22;50527;52.414;13.226;2022-12-15T03:16:12;-7.80;81.90
64209;DHT22;50527;52.414;13.226;2022-12-15T03:18:38;-7.70;82.10
64209;DHT22;50527;52.414;13.226;2022-12-15T03:21:04;-7.70;81.50
64209;DHT22;50527;52.414;13.226;2022-12-15T03:23:29;-7.70;80.70
64209;DHT22;50527;52.414;13.226;2022-12-15T03:25:55;-7.80;80.40
64209;DHT22;50527;52.414;13.226;2022-12-15T03:28:20;-7.80;80.60
64209;DHT22;50527;52.414;13.226;2022-12-15T03:30:47;-7.70;81.60
64209;DHT22;50527;52.414;13.226;2022-12-15T03:33:12;-7.70;81.80
64209;DHT22;50527;52.414;13.226;2022-12-15T03:35:38;-7.60;82.50
64209;DHT22;50527;52.414;13.226;2022-12-15T03:38:03;-7.50;82.20
64209;DHT22;50527;52.414;13.226;2022-12-15T03:40:28;-7.50;81.40
64209;DHT22;50527;52.414;13.226;2022-12-15T03:42:54;-7.50;81.90
64209;DHT22;50527;52.414;13.226;2022-12-15T03:45:20;-7.40;81.70
64209;DHT22;50527;52.414;13.226;2022-12-15T03:47:46;-7.40;81.90
64209;DHT22;50527;52.414;13.226;2022-12-15T03:50:13;-7.40;81.50
64209;DHT22;50527;52.414;13.226;2022-12-15T03:52:38;-7.40;81.40
64209;DHT22;50527;52.414;13.226;2022-12-15T03:55:04;-7.40;81.60
64209;DHT22;50527;52.414;13.226;2022-12-15T03:57:30;-7.40;83.20
64209;DHT22;50527;52.414;13.226;2022-12-15T03:59:55;-7.40;84.50
64209;DHT22;50527;52.414;13.226;2022-12-15T04:02:21;-7.40;84.20
64209;DHT22;50527;52.414;13.226;2022-12-15T04:04:46;-7.40;85.10
64209;DHT22;50527;52.414;13.226;2022-12-15T04:07:13;-7.30;85.90
64209;DHT22;50527;52.414;13.226;2022-12-15T04:09:38;-7.30;84.30
64209;DHT22;50527;52.414;13.226;2022-12-15T04:12:04;-7.40;83.40
64209;DHT22;50527;52.414;13.226;2022-12-15T04:14:29;-7.40;84.60
64209;DHT22;50527;52.414;13.226;2022-12-15T04:16:55;-7.40;85.70
64209;DHT22;50527;52.414;13.226;2022-12-15T04:19:20;-7.30;87.30
64209;DHT22;50527;52.414;13.226;2022-12-15T04:22:05;-7.40;87.00
64209;DHT22;50527;52.414;13.226;2022-12-15T04:24:30;-7.40;87.80
64209;DHT22;50527;52.414;13.226;2022-12-15T04:27:14;-7.40;87.80
64209;DHT22;50527;52.414;13.226;2022-12-15T04:29:58;-7.50;88.40
64209;DHT22;50527;52.414;13.226;2022-12-15T04:32:43;-7.40;89.10
64209;DHT22;50527;52.414;13.226;2022-12-15T04:35:27;-7.40;89.60
64209;DHT22;50527;52.414;13.226;2022-12-15T04:38:11;-7.40;89.00
64209;DHT22;50527;52.414;13.226;2022-12-15T04:40:55;-7.40;89.60
64209;DHT22;50527;52.414;13.226;2022-12-15T04:43:39;-7.30;90.50
64209;DHT22;50527;52.414;13.226;2022-12-15T04:46:24;-7.10;90.50
64209;DHT22;50527;52.414;13.226;2022-12-15T04:49:08;-7.00;90.40
64209;DHT22;50527;52.414;13.226;2022-12-15T04:51:52;-7.00;90.30
64209;DHT22;50527;52.414;13.226;2022-12-15T04:54:36;-6.90;90.20
64209;DHT22;50527;52.414;13.226;2022-12-15T04:57:21;-6.90;89.90
64209;DHT22;50527;52.414;13.226;2022-12-15T05:00:05;-6.80;89.20
64209;DHT22;50527;52.414;13.226;2022-12-15T05:02:49;-6.80;88.50
64209;DHT22;50527;52.414;13.226;2022-12-15T05:05:33;-6.80;88.20
64209;DHT22;50527;52.414;13.226;2022-12-15T05:08:17;-6.90;87.80
64209;DHT22;50527;52.414;13.226;2022-12-15T05:11:02;-6.90;88.80
64209;DHT22;50527;52.414;13.226;2022-12-15T05:13:46;-7.00;88.00
64209;DHT22;50527;52.414;13.226;2022-12-15T05:16:30;-7.00;88.50
64209;DHT22;50527;52.414;13.226;2022-12-15T05:19:14;-7.00;89.20
64209;DHT22;50527;52.414;13.226;2022-12-15T05:21:59;-7.10;90.10
64209;DHT22;50527;52.414;13.226;2022-12-15T05:24:43;-7.10;90.10
64209;DHT22;50527;52.414;13.226;2022-12-15T05:27:27;-7.00;90.20
64209;DHT22;50527;52.414;13.226;2022-12-15T05:30:11;-7.10;88.50
64209;DHT22;50527;52.414;13.226;2022-12-15T05:32:55;-7.10;87.80
64209;DHT22;50527;52.414;13.226;2022-12-15T05:35:21;-7.10;87.40
64209;DHT22;50527;52.414;13.226;2022-12-15T05:37:46;-7.30;87.70
64209;DHT22;50527;52.414;13.226;2022-12-15T05:40:12;-7.50;88.30
64209;DHT22;50527;52.414;13.226;2022-12-15T05:42:37;-7.50;88.80
64209;DHT22;50527;52.414;13.226;2022-12-15T05:45:03;-7.60;88.20
64209;DHT22;50527;52.414;13.226;2022-12-15T05:47:29;-7.60;88.50
64209;DHT22;50527;52.414;13.226;2022-12-15T05:49:54;-7.50;88.80
64209;DHT22;50527;52.414;13.226;2022-12-15T05:52:20;-7.40;88.40
64209;DHT22;50527;52.414;13.226;2022-12-15T05:54:45;-7.40;86.20
64209;DHT22;50527;52.414;13.226;2022-12-15T05:57:11;-7.40;86.40
64209;DHT22;50527;52.414;13.226;2022-12-15T05:59:36;-7.50;85.20
64209;DHT22;50527;52.414;13.226;2022-12-15T06:02:02;-7.40;86.00
64209;DHT22;50527;52.414;13.226;2022-12-15T06:04:27;-7.30;85.70
64209;DHT22;50527;52.414;13.226;2022-12-15T06:06:52;-7.30;85.30
64209;DHT22;50527;52.414;13.226;2022-12-15T06:09:18;-7.40;83.70
64209;DHT22;50527;52.414;13.226;2022-12-15T06:11:43;-7.50;83.30
64209;DHT22;50527;52.414;13.226;2022-12-15T06:14:09;-7.50;85.00
64209;DHT22;50527;52.414;13.226;2022-12-15T06:16:34;-7.60;83.30
64209;DHT22;50527;52.414;13.226;2022-12-15T06:19:00;-7.60;84.40
64209;DHT22;50527;52.414;13.226;2022-12-15T06:21:28;-7.60;83.70
64209;DHT22;50527;52.414;13.226;2022-12-15T06:23:54;-7.60;84.20
64209;DHT22;50527;52.414;13.226;2022-12-15T06:26:21;-7.50;84.40
64209;DHT22;50527;52.414;13.226;2022-12-15T06:28:47;-7.50;83.80
64209;DHT22;50527;52.414;13.226;2022-12-15T06:31:13;-7.60;83.50
64209;DHT22;50527;52.414;13.226;2022-12-15T06:33:39;-7.60;83.00
64209;DHT22;50527;52.414;13.226;2022-12-15T06:36:05;-7.60;83.50
64209;DHT22;50527;52.414;13.226;2022-12-15T06:38:31;-7.50;83.60
64209;DHT22;50527;52.414;13.226;2022-12-15T06:40:57;-7.50;83.40
64209;DHT22;50527;52.414;13.226;2022-12-15T06:43:23;-7.50;83.00
64209;DHT22;50527;52.414;13.226;2022-12-15T06:45:49;-7.60;83.00
64209;DHT22;50527;52.414;13.226;2022-12-15T06:48:14;-7.70;83.80
64209;DHT22;50527;52.414;13.226;2022-12-15T06:50:40;-7.70;83.30
64209;DHT22;50527;52.414;13.226;2022-12-15T06:53:06;-7.70;83.80
64209;DHT22;50527;52.414;13.226;2022-12-15T06:55:31;-7.60;83.50
64209;DHT22;50527;52.414;13.226;2022-12-15T06:57:56;-7.70;82.30
64209;DHT22;50527;52.414;13.226;2022-12-15T07:00:22;-7.80;82.80
64209;DHT22;50527;52.414;13.226;2022-12-15T07:02:47;-7.70;83.20
64209;DHT22;50527;52.414;13.226;2022-12-15T07:05:13;-7.70;82.80
64209;DHT22;50527;52.414;13.226;2022-12-15T07:07:38;-7.70;82.70
64209;DHT22;50527;52.414;13.226;2022-12-15T07:10:04;-7.70;83.00
64209;DHT22;50527;52.414;13.226;2022-12-15T07:12:29;-7.60;83.10
64209;DHT22;50527;52.414;13.226;2022-12-15T07:14:55;-7.60;83.30
64209;DHT22;50527;52.414;13.226;2022-12-15T07:17:20;-7.60;82.70
64209;DHT22;50527;52.414;13.226;2022-12-15T07:19:46;-7.60;83.10
64209;DHT22;50527;52.414;13.226;2022-12-15T07:22:11;-7.60;82.00
64209;DHT22;50527;52.414;13.226;2022-12-15T07:24:36;-7.70;81.80
64209;DHT22;50527;52.414;13.226;2022-12-15T07:27:02;-7.70;82.30
64209;DHT22;50527;52.414;13.226;2022-12-15T07:29:27;-7.70;82.20
64209;DHT22;50527;52.414;13.226;2022-12-15T07:31:53;-7.70;82.80
64209;DHT22;50527;52.414;13.226;2022-12-15T07:34:18;-7.70;83.30
64209;DHT22;50527;52.414;13.226;2022-12-15T07:36:44;-7.60;83.40
64209;DHT22;50527;52.414;13.226;2022-12-15T07:39:09;-7.60;83.70
64209;DHT22;50527;52.414;13.226;2022-12-15T07:41:36;-7.50;83.00
64209;DHT22;50527;52.414;13.226;2022-12-15T07:44:01;-7.40;82.30
64209;DHT22;50527;52.414;13.226;2022-12-15T07:46:27;-7.50;81.90
64209;DHT22;50527;52.414;13.226;2022-12-15T07:48:53;-7.40;81.90
64209;DHT22;50527;52.414;13.226;2022-12-15T07:51:18;-7.40;82.00
64209;DHT22;50527;52.414;13.226;2022-12-15T07:53:44;-7.50;81.60
64209;DHT22;50527;52.414;13.226;2022-12-15T07:56:10;-7.60;82.00
64209;DHT22;50527;52.414;13.226;2022-12-15T07:58:36;-7.50;81.90
64209;DHT22;50527;52.414;13.226;2022-12-15T08:01:02;-7.40;82.30
64209;DHT22;50527;52.414;13.226;2022-12-15T08:03:28;-7.40;82.60
64209;DHT22;50527;52.414;13.226;2022-12-15T08:05:54;-7.30;82.80
64209;DHT22;50527;52.414;13.226;2022-12-15T08:08:20;-7.30;82.30
64209;DHT22;50527;52.414;13.226;2022-12-15T08:10:45;-7.30;82.10
64209;DHT22;50527;52.414;13.226;2022-12-15T08:13:11;-7.20;82.40
64209;DHT22;50527;52.414;13.226;2022-12-15T08:15:37;-7.20;82.90
64209;DHT22;50527;52.414;13.226;2022-12-15T08:18:03;-7.20;82.70
64209;DHT22;50527;52.414;13.226;2022-12-15T08:20:29;-7.20;83.20
64209;DHT22;50527;52.414;13.226;2022-12-15T08:22:55;-7.30;83.80
64209;DHT22;50527;52.414;13.226;2022-12-15T08:25:21;-7.20;84.70
64209;DHT22;50527;52.414;13.226;2022-12-15T08:27:48;-7.10;85.20
64209;DHT22;50527;52.414;13.226;2022-12-15T08:30:14;-7.20;84.70
64209;DHT22;50527;52.414;13.226;2022-12-15T08:32:39;-7.20;84.70
64209;DHT22;50527;52.414;13.226;2022-12-15T08:35:05;-7.10;84.70
64209;DHT22;50527;52.414;13.226;2022-12-15T08:37:33;-7.10;85.20
64209;DHT22;50527;52.414;13.226;2022-12-15T08:39:58;-7.00;85.50
64209;DHT22;50527;52.414;13.226;2022-12-15T08:42:23;-7.00;86.00
64209;DHT22;50527;52.414;13.226;2022-12-15T08:44:49;-6.90;86.20
64209;DHT22;50527;52.414;13.226;2022-12-15T08:47:15;-6.80;86.00
64209;DHT22;50527;52.414;13.226;2022-12-15T08:49:40;-6.70;85.70
64209;DHT22;50527;52.414;13.226;2022-12-15T08:52:06;-6.50;86.00
64209;DHT22;50527;52.414;13.226;2022-12-15T08:54:31;-6.30;84.30
64209;DHT22;50527;52.414;13.226;2022-12-15T08:56:57;-6.30;83.50
64209;DHT22;50527;52.414;13.226;2022-12-15T08:59:22;-6.30;84.00
64209;DHT22;50527;52.414;13.226;2022-12-15T09:01:47;-6.40;83.70
64209;DHT22;50527;52.414;13.226;2022-12-15T09:04:13;-6.40;85.10
64209;DHT22;50527;52.414;13.226;2022-12-15T09:06:39;-6.40;85.20
64209;DHT22;50527;52.414;13.226;2022-12-15T09:09:06;-6.20;86.10
64209;DHT22;50527;52.414;13.226;2022-12-15T09:11:32;-6.40;85.10
64209;DHT22;50527;52.414;13.226;2022-12-15T09:13:57;-6.50;87.10
64209;DHT22;50527;52.414;13.226;2022-12-15T09:16:23;-6.30;88.50
64209;DHT22;50527;52.414;13.226;2022-12-15T09:18:49;-6.20;88.30
64209;DHT22;50527;52.414;13.226;2022-12-15T09:21:17;-6.00;88.20
64209;DHT22;50527;52.414;13.226;2022-12-15T09:23:46;-5.80;87.20
64209;DHT22;50527;52.414;13.226;2022-12-15T09:26:12;-5.60;86.90
64209;DHT22;50527;52.414;13.226;2022-12-15T09:28:38;-5.20;85.90
64209;DHT22;50527;52.414;13.226;2022-12-15T09:31:05;-5.00;84.00
64209;DHT22;50527;52.414;13.226;2022-12-15T09:33:31;-4.90;83.50
64209;DHT22;50527;52.414;13.226;2022-12-15T09:35:56;-4.90;83.40
64209;DHT22;50527;52.414;13.226;2022-12-15T09:38:22;-4.80;83.70
64209;DHT22;50527;52.414;13.226;2022-12-15T09:40:47;-4.70;83.40
64209;DHT22;50527;52.414;13.226;2022-12-15T09:43:14;-4.60;83.70
64209;DHT22;50527;52.414;13.226;2022-12-15T09:45:41;-4.60;83.30
64209;DHT22;50527;52.414;13.226;2022-12-15T09:48:09;-4.70;83.20
64209;DHT22;50527;52.414;13.226;2022-12-15T09:50:37;-4.60;84.20
64209;DHT22;50527;52.414;13.226;2022-12-15T09:53:04;-4.50;84.30
64209;DHT22;50527;52.414;13.226;2022-12-15T09:55:33;-4.40;84.20
64209;DHT22;50527;52.414;13.226;2022-12-15T09:58:04;-4.40;84.60
64209;DHT22;50527;52.414;13.226;2022-12-15T10:05:56;-4.10;84.40
64209;DHT22;50527;52.414;13.226;2022-12-15T10:08:27;-4.10;85.30
64209;DHT22;50527;52.414;13.226;2022-12-15T10:10:54;-4.20;84.90
64209;DHT22;50527;52.414;13.226;2022-12-15T10:13:23;-4.20;86.20
64209;DHT22;50527;52.414;13.226;2022-12-15T10:16:02;-4.00;86.60
64209;DHT22;50527;52.414;13.226;2022-12-15T10:20:57;-4.20;86.30
64209;DHT22;50527;52.414;13.226;2022-12-15T10:23:24;-4.20;87.40
64209;DHT22;50527;52.414;13.226;2022-12-15T10:25:53;-4.00;88.90
64209;DHT22;50527;52.414;13.226;2022-12-15T10:28:29;-3.90;87.10
64209;DHT22;50527;52.414;13.226;2022-12-15T10:31:02;-3.80;86.30
64209;DHT22;50527;52.414;13.226;2022-12-15T10:33:35;-3.80;85.80
64209;DHT22;50527;52.414;13.226;2022-12-15T10:36:06;-3.60;87.50
64209;DHT22;50527;52.414;13.226;2022-12-15T10:41:00;-3.40;86.40
64209;DHT22;50527;52.414;13.226;2022-12-15T10:43:30;-3.30;86.60
64209;DHT22;50527;52.414;13.226;2022-12-15T10:46:09;-3.30;86.30
64209;DHT22;50527;52.414;13.226;2022-12-15T10:48:42;-3.40;86.00
64209;DHT22;50527;52.414;13.226;2022-12-15T10:51:16;-3.20;87.00
64209;DHT22;50527;52.414;13.226;2022-12-15T10:53:43;-3.00;87.30
64209;DHT22;50527;52.414;13.226;2022-12-15T10:56:20;-3.10;85.50
64209;DHT22;50527;52.414;13.226;2022-12-15T10:58:47;-3.30;85.90
64209;DHT22;50527;52.414;13.226;2022-12-15T11:01:20;-3.20;88.40
64209;DHT22;50527;52.414;13.226;2022-12-15T11:03:48;-3.30;88.80
64209;DHT22;50527;52.414;13.226;2022-12-15T11:06:20;-3.00;89.50
64209;DHT22;50527;52.414;13.226;2022-12-15T11:08:46;-3.00;89.40
64209;DHT22;50527;52.414;13.226;2022-12-15T11:11:26;-2.90;89.30
64209;DHT22;50527;52.414;13.226;2022-12-15T11:14:11;-2.90;88.60
64209;DHT22;50527;52.414;13.226;2022-12-15T11:16:57;-2.90;89.40
64209;DHT22;50527;52.414;13.226;2022-12-15T11:21:48;-2.60;89.70
64209;DHT22;50527;52.414;13.226;2022-12-15T11:24:19;-2.50;90.10
64209;DHT22;50527;52.414;13.226;2022-12-15T11:26:50;-2.40;89.50
64209;DHT22;50527;52.414;13.226;2022-12-15T11:29:23;-2.20;88.20
64209;DHT22;50527;52.414;13.226;2022-12-15T11:31:52;-2.20;88.00
64209;DHT22;50527;52.414;13.226;2022-12-15T11:34:19;-2.20;88.30
64209;DHT22;50527;52.414;13.226;2022-12-15T11:39:46;-2.10;86.60
64209;DHT22;50527;52.414;13.226;2022-12-15T11:42:14;-2.10;87.20
64209;DHT22;50527;52.414;13.226;2022-12-15T11:47:30;-1.90;87.90
64209;DHT22;50527;52.414;13.226;2022-12-15T11:50:02;-1.90;88.20
64209;DHT22;50527;52.414;13.226;2022-12-15T11:55:16;-1.80;87.80
64209;DHT22;50527;52.414;13.226;2022-12-15T11:57:55;-1.80;86.60
64209;DHT22;50527;52.414;13.226;2022-12-15T12:00:24;-1.90;87.10
64209;DHT22;50527;52.414;13.226;2022-12-15T12:08:12;-1.50;86.40
64209;DHT22;50527;52.414;13.226;2022-12-15T12:10:50;-1.50;87.50
64209;DHT22;50527;52.414;13.226;2022-12-15T12:18:32;-1.70;87.40
64209;DHT22;50527;52.414;13.226;2022-12-15T12:21:01;-1.80;87.70
64209;DHT22;50527;52.414;13.226;2022-12-15T12:23:30;-1.80;88.40
64209;DHT22;50527;52.414;13.226;2022-12-15T12:26:18;-1.80;89.70
64209;DHT22;50527;52.414;13.226;2022-12-15T12:28:50;-1.70;90.00
64209;DHT22;50527;52.414;13.226;2022-12-15T12:31:31;-1.80;89.70
64209;DHT22;50527;52.414;13.226;2022-12-15T12:34:00;-1.70;90.40
64209;DHT22;50527;52.414;13.226;2022-12-15T12:36:27;-1.70;90.40
64209;DHT22;50527;52.414;13.226;2022-12-15T12:38:54;-1.60;90.40
64209;DHT22;50527;52.414;13.226;2022-12-15T12:41:30;-1.60;90.70
64209;DHT22;50527;52.414;13.226;2022-12-15T12:43:58;-1.50;90.70
64209;DHT22;50527;52.414;13.226;2022-12-15T12:46:26;-1.50;90.70
64209;DHT22;50527;52.414;13.226;2022-12-15T12:48:55;-1.50;90.40
64209;DHT22;50527;52.414;13.226;2022-12-15T12:53:48;-1.40;90.10
64209;DHT22;50527;52.414;13.226;2022-12-15T12:58:58;-1.40;89.60
64209;DHT22;50527;52.414;13.226;2022-12-15T13:01:25;-1.50;89.60
64209;DHT22;50527;52.414;13.226;2022-12-15T13:08:59;-1.50;90.50
64209;DHT22;50527;52.414;13.226;2022-12-15T13:14:24;-1.60;91.00
64209;DHT22;50527;52.414;13.226;2022-12-15T13:16:54;-1.60;90.90
64209;DHT22;50527;52.414;13.226;2022-12-15T13:24:52;-1.40;90.70
64209;DHT22;50527;52.414;13.226;2022-12-15T13:27:20;-1.30;90.70
64209;DHT22;50527;52.414;13.226;2022-12-15T13:29:58;-1.30;90.90
64209;DHT22;50527;52.414;13.226;2022-12-15T13:32:30;-1.30;91.00
64209;DHT22;50527;52.414;13.226;2022-12-15T13:34:55;-1.30;90.90
64209;DHT22;50527;52.414;13.226;2022-12-15T13:42:46;-1.40;91.20
64209;DHT22;50527;52.414;13.226;2022-12-15T13:45:27;-1.40;91.40
64209;DHT22;50527;52.414;13.226;2022-12-15T13:47:52;-1.40;91.40
64209;DHT22;50527;52.414;13.226;2022-12-15T13:50:26;-1.40;91.20
64209;DHT22;50527;52.414;13.226;2022-12-15T13:52:54;-1.40;91.20
64209;DHT22;50527;52.414;13.226;2022-12-15T13:55:21;-1.40;91.30
64209;DHT22;50527;52.414;13.226;2022-12-15T13:57:51;-1.50;91.20
64209;DHT22;50527;52.414;13.226;2022-12-15T14:00:18;-1.50;91.50
64209;DHT22;50527;52.414;13.226;2022-12-15T14:02:44;-1.50;91.60
64209;DHT22;50527;52.414;13.226;2022-12-15T14:10:22;-1.50;91.80
64209;DHT22;50527;52.414;13.226;2022-12-15T14:12:49;-1.60;91.90
64209;DHT22;50527;52.414;13.226;2022-12-15T14:15:16;-1.60;91.80
64209;DHT22;50527;52.414;13.226;2022-12-15T14:17:46;-1.70;92.00
64209;DHT22;50527;52.414;13.226;2022-12-15T14:20:16;-1.70;92.10
64209;DHT22;50527;52.414;13.226;2022-12-15T14:22:43;-1.70;92.00
64209;DHT22;50527;52.414;13.226;2022-12-15T14:25:12;-1.70;92.00
64209;DHT22;50527;52.414;13.226;2022-12-15T14:27:38;-1.80;92.10
64209;DHT22;50527;52.414;13.226;2022-12-15T14:30:11;-1.90;92.00
64209;DHT22;50527;52.414;13.226;2022-12-15T14:32:42;-1.90;92.30
64209;DHT22;50527;52.414;13.226;2022-12-15T14:35:12;-1.90;92.30
64209;DHT22;50527;52.414;13.226;2022-12-15T14:37:38;-1.90;92.30
64209;DHT22;50527;52.414;13.226;2022-12-15T14:40:04;-2.00;92.20
64209;DHT22;50527;52.414;13.226;2022-12-15T14:42:30;-2.00;91.90
64209;DHT22;50527;52.414;13.226;2022-12-15T14:44:55;-2.10;91.90
64209;DHT22;50527;52.414;13.226;2022-12-15T14:47:22;-2.10;92.40
64209;DHT22;50527;52.414;13.226;2022-12-15T14:49:49;-2.10;93.00
64209;DHT22;50527;52.414;13.226;2022-12-15T14:52:37;-2.10;93.00
64209;DHT22;50527;52.414;13.226;2022-12-15T14:55:01;-2.10;92.90
64209;DHT22;50527;52.414;13.226;2022-12-15T14:57:38;-2.20;92.60
64209;DHT22;50527;52.414;13.226;2022-12-15T15:00:22;-2.20;92.70
64209;DHT22;50527;52.414;13.226;2022-12-15T15:02:48;-2.20;92.90
64209;DHT22;50527;52.414;13.226;2022-12-15T15:05:23;-2.20;93.10
64209;DHT22;50527;52.414;13.226;2022-12-15T15:07:53;-2.20;93.00
64209;DHT22;50527;52.414;13.226;2022-12-15T15:10:21;-2.30;92.30
64209;DHT22;50527;52.414;13.226;2022-12-15T15:12:47;-2.30;91.90
64209;DHT22;50527;52.414;13.226;2022-12-15T15:15:14;-2.40;92.00
64209;DHT22;50527;52.414;13.226;2022-12-15T15:17:58;-2.40;92.20
64209;DHT22;50527;52.414;13.226;2022-12-15T15:25:39;-2.50;92.40
64209;DHT22;50527;52.414;13.226;2022-12-15T15:30:40;-2.60;92.40
64209;DHT22;50527;52.414;13.226;2022-12-15T15:33:07;-2.60;92.90
64209;DHT22;50527;52.414;13.226;2022-12-15T15:35:32;-2.60;92.90
64209;DHT22;50527;52.414;13.226;2022-12-15T15:38:00;-2.70;92.50
64209;DHT22;50527;52.414;13.226;2022-12-15T15:40:26;-2.60;92.50
64209;DHT22;50527;52.414;13.226;2022-12-15T15:42:52;-2.70;92.10
64209;DHT22;50527;52.414;13.226;2022-12-15T15:45:17;-2.70;91.50
64209;DHT22;50527;52.414;13.226;2022-12-15T15:47:46;-2.70;91.50
64209;DHT22;50527;52.414;13.226;2022-12-15T15:50:15;-2.80;91.70
64209;DHT22;50527;52.414;13.226;2022-12-15T15:52:41;-2.80;91.50
64209;DHT22;50527;52.414;13.226;2022-12-15T15:55:08;-2.80;91.50
64209;DHT22;50527;52.414;13.226;2022-12-15T15:57:37;-2.90;91.50
64209;DHT22;50527;52.414;13.226;2022-12-15T16:00:06;-2.90;91.90
64209;DHT22;50527;52.414;13.226;2022-12-15T16:02:36;-2.90;91.80
64209;DHT22;50527;52.414;13.226;2022-12-15T16:05:02;-2.90;92.30
64209;DHT22;50527;52.414;13.226;2022-12-15T16:07:27;-3.00;92.70
64209;DHT22;50527;52.414;13.226;2022-12-15T16:09:53;-3.00;92.40
64209;DHT22;50527;52.414;13.226;2022-12-15T16:14:47;-3.10;92.00
64209;DHT22;50527;52.414;13.226;2022-12-15T16:17:12;-3.10;92.30
64209;DHT22;50527;52.414;13.226;2022-12-15T16:19:39;-3.10;92.10
64209;DHT22;50527;52.414;13.226;2022-12-15T16:22:04;-3.10;92.50
64209;DHT22;50527;52.414;13.226;2022-12-15T16:24:30;-3.10;92.90
64209;DHT22;50527;52.414;13.226;2022-12-15T16:26:56;-3.10;93.00
64209;DHT22;50527;52.414;13.226;2022-12-15T16:29:21;-3.10;92.70
64209;DHT22;50527;52.414;13.226;2022-12-15T16:31:47;-3.20;92.30
64209;DHT22;50527;52.414;13.226;2022-12-15T16:34:13;-3.20;92.10
64209;DHT22;50527;52.414;13.226;2022-12-15T16:36:40;-3.20;92.00
64209;DHT22;50527;52.414;13.226;2022-12-15T16:39:25;-3.20;92.20
64209;DHT22;50527;52.414;13.226;2022-12-15T16:41:51;-3.30;92.00
64209;DHT22;50527;52.414;13.226;2022-12-15T16:44:17;-3.30;91.60
64209;DHT22;50527;52.414;13.226;2022-12-15T16:46:42;-3.30;91.60
64209;DHT22;50527;52.414;13.226;2022-12-15T16:49:08;-3.30;92.00
64209;DHT22;50527;52.414;13.226;2022-12-15T16:51:37;-3.30;91.60
64209;DHT22;50527;52.414;13.226;2022-12-15T16:54:03;-3.30;91.70
64209;DHT22;50527;52.414;13.226;2022-12-15T16:56:29;-3.40;91.50
64209;DHT22;50527;52.414;13.226;2022-12-15T16:58:54;-3.30;92.20
64209;DHT22;50527;52.414;13.226;2022-12-15T17:01:21;-3.30;92.30
64209;DHT22;50527;52.414;13.226;2022-12-15T17:03:46;-3.30;92.20
64209;DHT22;50527;52.414;13.226;2022-12-15T17:06:11;-3.40;91.30